Time;durP1;ratioP1;P1;durP2;ratioP2;P2;SDS_P1;SDS_P2;PMS_P1;PMS_P2;Temp;Humidity;BMP_temperature;BMP_pressure;BME280_temperature;BME280_humidity;BME280_pressure;Samples;Min_cycle;Max_cycle;Signal;HPM_P1;HPM_P2
2023/05/04 00:00:48;;;;;;;12.68;6.40;;;;;;;11.37;100.00;100452.09;5064960;28;20029;-32
2023/05/04 00:03:14;;;;;;;10.82;6.55;;;;;;;11.23;100.00;100446.81;5065217;28;20028;-31
2023/05/04 00:05:39;;;;;;;15.10;6.45;;;;;;;11.27;100.00;100450.69;5065070;28;20358;-31
2023/05/04 00:08:05;;;;;;;13.25;7.25;;;;;;;11.36;100.00;100451.28;5064607;28;20462;-31
2023/05/04 00:10:30;;;;;;;13.02;6.80;;;;;;;11.51;100.00;100466.19;5064566;28;20060;-31
2023/05/04 00:12:56;;;;;;;16.85;8.85;;;;;;;11.29;100.00;100450.50;5064939;28;20120;-33
2023/05/04 00:15:21;;;;;;;12.70;6.82;;;;;;;11.34;100.00;100452.50;5047508;28;20025;-32
2023/05/04 00:17:47;;;;;;;12.40;8.15;;;;;;;11.29;100.00;100441.66;5047925;28;20459;-32
2023/05/04 00:20:12;;;;;;;12.18;7.53;;;;;;;11.21;100.00;100440.06;5048294;28;20021;-31
2023/05/04 00:22:38;;;;;;;14.70;7.78;;;;;;;11.19;100.00;100437.59;5048583;28;20447;-31
2023/05/04 00:25:05;;;;;;;13.20;7.82;;;;;;;11.30;100.00;100454.81;5048456;28;20033;-31
2023/05/04 00:27:30;;;;;;;13.57;7.43;;;;;;;11.05;100.00;100454.72;5048340;28;20120;-31
2023/05/04 00:29:56;;;;;;;14.20;7.47;;;;;;;11.04;100.00;100434.41;5029525;28;20064;-31
2023/05/04 00:32:21;;;;;;;15.60;7.90;;;;;;;11.35;100.00;100435.47;5047899;28;20786;-31
2023/05/04 00:34:47;;;;;;;15.15;8.98;;;;;;;11.42;100.00;100436.22;5047953;28;20021;-31
2023/05/04 00:37:13;;;;;;;14.73;8.25;;;;;;;11.30;100.00;100430.78;5047882;28;20029;-31
2023/05/04 00:39:38;;;;;;;16.70;8.88;;;;;;;11.26;100.00;100433.06;5048113;28;20028;-31
2023/05/04 00:42:04;;;;;;;16.90;8.88;;;;;;;11.38;100.00;100424.34;5047721;28;20029;-31
2023/05/04 00:44:29;;;;;;;14.07;9.15;;;;;;;11.19;100.00;100421.56;5048109;28;20021;-31
2023/05/04 00:46:56;;;;;;;17.27;9.57;;;;;;;11.18;100.00;100405.81;5047607;28;20542;-31
2023/05/04 00:49:22;;;;;;;15.57;9.48;;;;;;;11.34;100.00;100417.78;5047952;28;20032;-31
2023/05/04 00:51:49;;;;;;;15.43;9.93;;;;;;;11.39;100.00;100404.63;5047799;28;20029;-31
2023/05/04 00:54:18;;;;;;;17.55;9.77;;;;;;;11.24;100.00;100400.41;5047647;28;20104;-32
2023/05/04 00:56:44;;;;;;;14.25;10.02;;;;;;;11.25;100.00;100403.88;5047713;28;20036;-31
2023/05/04 00:59:12;;;;;;;23.10;12.13;;;;;;;11.13;100.00;100386.91;5047772;28;20029;-32
2023/05/04 01:01:37;;;;;;;16.98;10.38;;;;;;;11.14;100.00;100399.25;5047480;28;20037;-31
2023/05/04 01:04:03;;;;;;;18.40;10.80;;;;;;;11.16;100.00;100398.00;5047502;28;20162;-31
2023/05/04 01:06:51;;;;;;;16.23;10.75;;;;;;;11.16;100.00;100407.88;5047384;28;20128;-32
2023/05/04 01:09:41;;;;;;;17.80;11.00;;;;;;;11.10;100.00;100412.19;5047261;28;20053;-33
2023/05/04 01:12:30;;;;;;;18.30;10.73;;;;;;;11.19;100.00;100421.56;5047475;28;20110;-31
2023/05/04 01:14:55;;;;;;;16.90;9.98;;;;;;;11.31;100.00;100419.06;5047425;28;20065;-31
2023/05/04 01:17:21;;;;;;;19.17;10.75;;;;;;;11.50;100.00;100424.47;5047170;28;20064;-31
2023/05/04 01:19:46;;;;;;;17.92;10.77;;;;;;;11.36;100.00;100415.72;5047319;28;20109;-31
2023/05/04 01:22:12;;;;;;;16.65;9.88;;;;;;;11.32;100.00;100412.69;5047484;28;20408;-31
2023/05/04 01:24:37;;;;;;;20.00;9.38;;;;;;;11.49;100.00;100407.63;5047340;28;20032;-31
2023/05/04 01:27:07;;;;;;;16.98;9.13;;;;;;;11.11;100.00;100408.47;5046987;28;20029;-32
2023/05/04 01:29:52;;;;;;;15.18;8.80;;;;;;;11.11;100.00;100387.13;5047059;28;20202;-31
2023/05/04 01:32:19;;;;;;;16.15;9.30;;;;;;;11.20;100.00;100406.41;5046797;28;20033;-31
2023/05/04 01:34:45;;;;;;;17.02;9.07;;;;;;;11.29;100.00;100414.97;5047100;28;20094;-31
2023/05/04 01:37:10;;;;;;;16.27;8.05;;;;;;;11.12;100.00;100410.13;5047022;28;20120;-34
2023/05/04 01:39:36;;;;;;;19.58;9.32;;;;;;;11.17;100.00;100414.81;5047071;28;20029;-31
2023/05/04 01:42:01;;;;;;;18.52;9.07;;;;;;;11.04;100.00;100403.19;5046666;28;20028;-31
2023/05/04 01:44:27;;;;;;;17.20;9.05;;;;;;;10.98;100.00;100404.03;5046670;28;20067;-31
2023/05/04 01:46:53;;;;;;;18.30;9.63;;;;;;;11.12;100.00;100394.13;5046782;28;20036;-31
2023/05/04 01:49:18;;;;;;;14.80;8.93;;;;;;;11.30;100.00;100381.88;5046548;28;20893;-33
2023/05/04 01:51:45;;;;;;;14.65;9.00;;;;;;;11.19;100.00;100373.53;5046628;28;20029;-32
2023/05/04 01:54:11;;;;;;;15.13;8.82;;;;;;;11.24;100.00;100367.56;5046830;28;20051;-33
2023/05/04 01:56:37;;;;;;;13.50;8.27;;;;;;;10.85;100.00;100334.75;5046611;28;20393;-32
2023/05/04 01:59:02;;;;;;;14.23;8.55;;;;;;;11.14;100.00;100346.69;5046527;28;20025;-32
2023/05/04 02:01:27;;;;;;;13.60;8.52;;;;;;;10.93;100.00;100339.00;5046454;28;20082;-32
2023/05/04 02:03:53;;;;;;;15.48;8.43;;;;;;;10.82;100.00;100335.16;5046458;28;20033;-31
2023/05/04 02:06:18;;;;;;;12.30;7.70;;;;;;;10.93;100.00;100352.34;5046338;28;20017;-31
2023/05/04 02:08:45;;;;;;;16.13;8.50;;;;;;;10.91;100.00;100354.41;5046238;28;20068;-31
2023/05/04 02:11:10;;;;;;;17.45;8.82;;;;;;;11.12;100.00;100371.97;5045901;28;20499;-31
2023/05/04 02:13:36;;;;;;;15.07;8.93;;;;;;;11.23;100.00;100384.59;5046442;28;20021;-32
2023/05/04 02:16:01;;;;;;;13.02;8.40;;;;;;;11.22;100.00;100380.31;5045982;28;20041;-31
2023/05/04 02:18:26;;;;;;;14.43;7.80;;;;;;;11.12;100.00;100383.44;5046019;28;20431;-32
2023/05/04 02:20:52;;;;;;;17.05;8.85;;;;;;;11.21;100.00;100387.47;5045857;28;20381;-32
2023/05/04 02:23:17;;;;;;;14.73;9.15;;;;;;;10.95;100.00;100387.63;5046138;28;20041;-31
2023/05/04 02:25:43;;;;;;;16.88;9.57;;;;;;;10.98;100.00;100381.88;5046107;28;20116;-32
2023/05/04 02:28:08;;;;;;;19.70;13.13;;;;;;;11.15;100.00;100383.00;5046028;28;20032;-31
2023/05/04 02:30:34;;;;;;;22.25;16.58;;;;;;;11.02;100.00;100393.75;5046036;28;20040;-31
2023/05/04 02:32:59;;;;;;;21.92;12.57;;;;;;;11.08;100.00;100405.44;5045840;28;20044;-31
2023/05/04 02:35:25;;;;;;;23.63;16.75;;;;;;;11.34;100.00;100402.63;5045819;28;20419;-32
2023/05/04 02:37:51;;;;;;;31.50;20.77;;;;;;;11.39;100.00;100410.78;5045834;28;20021;-31
2023/05/04 02:40:16;;;;;;;24.08;14.23;;;;;;;11.22;100.00;100417.69;5045558;28;20431;-31
2023/05/04 02:42:42;;;;;;;27.65;16.98;;;;;;;11.14;100.00;100417.94;5045516;28;20041;-31
2023/05/04 02:45:07;;;;;;;24.50;15.43;;;;;;;10.98;100.00;100420.06;5045624;28;20021;-33
2023/05/04 02:47:33;;;;;;;21.45;14.35;;;;;;;10.99;100.00;100432.38;5045516;28;20035;-31
2023/05/04 02:49:58;;;;;;;24.90;16.80;;;;;;;11.13;100.00;100433.09;5045734;28;20052;-31
2023/05/04 02:52:24;;;;;;;22.17;13.52;;;;;;;11.46;100.00;100432.94;5045416;28;20419;-32
2023/05/04 02:54:49;;;;;;;15.55;12.13;;;;;;;11.29;100.00;100431.00;5045465;28;20415;-32
2023/05/04 02:57:15;;;;;;;20.58;12.60;;;;;;;11.14;100.00;100424.09;5045530;28;20416;-30
2023/05/04 02:59:40;;;;;;;23.48;13.50;;;;;;;11.32;100.00;100422.53;5044980;28;20039;-32
2023/05/04 03:02:06;;;;;;;19.30;11.00;;;;;;;11.27;100.00;100418.66;5045528;28;20039;-31
2023/05/04 03:04:31;;;;;;;18.58;12.57;;;;;;;11.44;100.00;100418.13;5045173;28;20033;-32
2023/05/04 03:06:56;;;;;;;17.50;11.02;;;;;;;11.24;100.00;100424.44;5045515;28;20060;-31
2023/05/04 03:09:22;;;;;;;19.75;12.30;;;;;;;11.35;100.00;100430.13;5045169;28;20049;-32
2023/05/04 03:11:47;;;;;;;17.40;10.50;;;;;;;11.30;100.00;100430.78;5045249;28;20033;-32
2023/05/04 03:14:13;;;;;;;19.08;11.50;;;;;;;11.29;100.00;100425.66;5045309;28;20068;-34
2023/05/04 03:16:38;;;;;;;17.42;9.75;;;;;;;11.16;100.00;100422.03;5045016;28;20063;-32
2023/05/04 03:19:03;;;;;;;14.52;9.70;;;;;;;11.25;100.00;100420.72;5045303;28;20024;-32
2023/05/04 03:21:29;;;;;;;14.27;9.20;;;;;;;11.18;100.00;100424.47;5044776;28;20115;-32
2023/05/04 03:23:54;;;;;;;13.55;9.13;;;;;;;11.07;100.00;100423.28;5045678;28;20108;-32
2023/05/04 03:26:20;;;;;;;14.23;9.80;;;;;;;11.13;100.00;100427.78;5045233;28;20039;-31
2023/05/04 03:28:45;;;;;;;20.10;11.50;;;;;;;11.41;100.00;100431.94;5045141;28;20032;-31
2023/05/04 03:31:11;;;;;;;20.52;11.18;;;;;;;11.41;100.00;100429.25;5045189;28;20028;-31
2023/05/04 03:33:36;;;;;;;17.35;9.82;;;;;;;11.36;100.00;100416.56;5045213;28;20021;-31
2023/05/04 03:36:02;;;;;;;15.20;8.93;;;;;;;11.14;100.00;100417.94;5045166;28;20029;-32
2023/05/04 03:38:28;;;;;;;13.95;9.30;;;;;;;11.25;100.00;100427.91;5045025;28;20036;-31
2023/05/04 03:40:53;;;;;;;15.50;9.55;;;;;;;11.22;100.00;100431.84;5045070;28;20153;-33
2023/05/04 03:43:18;;;;;;;18.17;9.63;;;;;;;11.18;100.00;100430.63;5044948;28;20025;-32
2023/05/04 03:45:45;;;;;;;16.23;9.95;;;;;;;11.04;100.00;100413.88;5045076;28;20711;-32
2023/05/04 03:48:10;;;;;;;15.23;9.13;;;;;;;11.17;100.00;100426.31;5045138;28;20112;-32
2023/05/04 03:50:36;;;;;;;17.63;9.32;;;;;;;11.41;100.00;100434.59;5045447;28;20036;-31
2023/05/04 03:53:01;;;;;;;13.05;9.60;;;;;;;11.27;100.00;100426.66;5048442;28;20021;-30
2023/05/04 03:55:27;;;;;;;16.65;9.50;;;;;;;11.32;100.00;100436.72;5048712;28;20025;-31
2023/05/04 03:57:52;;;;;;;18.17;9.55;;;;;;;11.43;100.00;100432.53;5048788;28;20107;-31
2023/05/04 04:00:18;;;;;;;15.60;8.82;;;;;;;11.36;100.00;100429.09;5048598;28;20036;-31
2023/05/04 04:02:43;;;;;;;14.45;9.60;;;;;;;11.30;100.00;100416.59;5048662;28;20040;-32
2023/05/04 04:05:09;;;;;;;14.20;8.80;;;;;;;11.20;100.00;100433.09;5048314;28;20107;-31
2023/05/04 04:07:34;;;;;;;18.63;10.00;;;;;;;11.60;100.00;100430.97;5052583;28;20025;-32
2023/05/04 04:10:00;;;;;;;18.67;10.45;;;;;;;11.42;100.00;100420.22;5063022;28;20048;-33
2023/05/04 04:12:25;;;;;;;16.08;9.15;;;;;;;11.51;100.00;100432.28;5068334;28;20028;-31
2023/05/04 04:14:51;;;;;;;14.57;9.10;;;;;;;11.41;100.00;100429.25;5068366;28;20063;-31
2023/05/04 04:17:17;;;;;;;15.32;9.35;;;;;;;11.32;100.00;100438.56;5068522;28;20023;-32
2023/05/04 04:19:42;;;;;;;14.52;9.40;;;;;;;11.22;100.00;100426.50;5068240;28;20036;-32
2023/05/04 04:22:08;;;;;;;17.67;9.75;;;;;;;11.48;100.00;100435.38;5068320;28;20031;-31
2023/05/04 04:24:33;;;;;;;18.08;10.52;;;;;;;11.48;100.00;100419.34;5068189;28;20020;-31
2023/05/04 04:26:59;;;;;;;15.93;9.70;;;;;;;11.44;100.00;100429.66;5068146;28;20032;-31
2023/05/04 04:29:24;;;;;;;18.80;9.73;;;;;;;11.48;100.00;100419.34;5068064;28;20462;-31
2023/05/04 04:31:50;;;;;;;14.57;11.05;;;;;;;11.55;100.00;100432.69;5067941;28;20595;-31
2023/05/04 04:34:15;;;;;;;16.70;10.73;;;;;;;11.46;100.00;100426.75;5068371;28;20032;-32
2023/05/04 04:36:41;;;;;;;20.23;11.73;;;;;;;11.34;100.00;100431.16;5068046;28;20027;-33
2023/05/04 04:39:06;;;;;;;18.02;12.30;;;;;;;11.55;100.00;100444.16;5067900;28;20021;-31
2023/05/04 04:41:32;;;;;;;17.38;10.75;;;;;;;11.74;100.00;100447.72;5067950;28;20032;-32
2023/05/04 04:43:58;;;;;;;20.65;11.63;;;;;;;11.93;100.00;100451.34;5067970;28;20031;-31
2023/05/04 04:46:23;;;;;;;22.77;10.85;;;;;;;11.96;100.00;100458.91;5067941;28;20154;-31
2023/05/04 04:48:51;;;;;;;20.55;11.65;;;;;;;12.07;100.00;100449.34;5067633;28;20032;-31
2023/05/04 04:51:16;;;;;;;17.90;11.68;;;;;;;11.87;100.00;100438.81;5068185;28;20036;-31
2023/05/04 04:53:42;;;;;;;17.70;11.82;;;;;;;11.71;100.00;100450.00;5067427;28;20024;-32
2023/05/04 04:56:08;;;;;;;18.58;11.40;;;;;;;11.78;100.00;100453.47;5067657;28;20025;-31
2023/05/04 04:58:34;;;;;;;15.95;10.73;;;;;;;11.63;100.00;100449.25;5067844;28;20025;-32
2023/05/04 05:01:02;;;;;;;16.77;10.25;;;;;;;11.78;100.00;100456.13;5068743;28;20028;-31
2023/05/04 05:03:27;;;;;;;14.95;9.57;;;;;;;11.81;100.00;100445.00;5068074;28;20563;-32
2023/05/04 05:05:54;;;;;;;14.82;9.55;;;;;;;11.84;100.00;100460.63;5068517;28;20058;-32
2023/05/04 05:08:19;;;;;;;15.25;8.48;;;;;;;11.69;100.00;100452.06;5068400;28;20020;-32
2023/05/04 05:10:45;;;;;;;15.70;8.95;;;;;;;11.87;100.00;100452.16;5068439;28;20027;-32
2023/05/04 05:13:10;;;;;;;13.45;7.72;;;;;;;11.68;100.00;100451.25;5068039;28;20016;-33
2023/05/04 05:15:36;;;;;;;15.02;7.63;;;;;;;11.72;100.00;100432.97;5068127;28;20029;-32
2023/05/04 05:18:01;;;;;;;12.68;7.05;;;;;;;11.69;100.00;100444.91;5068090;28;20025;-32
2023/05/04 05:20:26;;;;;;;11.02;6.75;;;;;;;11.70;100.00;100438.50;5068208;28;20024;-33
2023/05/04 05:22:52;;;;;;;12.20;6.80;;;;;;;12.08;100.00;100458.19;5068116;28;20024;-32
2023/05/04 05:25:18;;;;;;;14.90;7.85;;;;;;;12.35;100.00;100456.91;5068300;28;20032;-32
2023/05/04 05:27:44;;;;;;;10.55;6.90;;;;;;;12.31;100.00;100461.06;5067903;28;20078;-33
2023/05/04 05:30:10;;;;;;;10.77;6.57;;;;;;;12.30;100.00;100464.78;5068298;28;20039;-32
2023/05/04 05:32:36;;;;;;;14.48;7.75;;;;;;;12.64;100.00;100459.91;5061251;28;20393;-33
2023/05/04 05:35:03;;;;;;;9.43;6.82;;;;;;;12.61;100.00;100469.19;5057528;28;20107;-33
2023/05/04 05:37:29;;;;;;;11.90;7.57;;;;;;;12.79;100.00;100473.75;5057075;28;20024;-32
2023/05/04 05:39:54;;;;;;;11.60;6.75;;;;;;;12.53;100.00;100474.84;5055454;28;20032;-33
2023/05/04 05:42:20;;;;;;;13.82;7.40;;;;;;;12.58;100.00;100474.16;5061825;28;20024;-33
2023/05/04 05:44:45;;;;;;;12.73;7.15;;;;;;;12.36;100.00;100485.31;5067886;28;20390;-31
2023/05/04 05:47:11;;;;;;;11.88;7.60;;;;;;;12.36;100.00;100489.81;5067707;28;20033;-31
2023/05/04 05:49:36;;;;;;;14.55;8.60;;;;;;;12.25;100.00;100496.69;5067491;28;20020;-32
2023/05/04 05:52:02;;;;;;;15.32;8.90;;;;;;;12.39;100.00;100495.53;5067865;28;20098;-30
2023/05/04 05:54:29;;;;;;;14.20;8.40;;;;;;;12.37;100.00;100494.94;5067362;28;20017;-32
2023/05/04 05:56:55;;;;;;;12.20;7.55;;;;;;;12.48;100.00;100503.28;5067393;28;20033;-31
2023/05/04 05:59:20;;;;;;;16.10;9.15;;;;;;;12.59;100.00;100506.06;5067462;28;20078;-32
2023/05/04 06:01:46;;;;;;;17.58;9.40;;;;;;;12.72;100.00;100499.75;5067516;28;20025;-31
2023/05/04 06:04:11;;;;;;;15.45;8.85;;;;;;;12.69;100.00;100499.34;5067173;28;20028;-31
2023/05/04 06:06:36;;;;;;;16.48;8.30;;;;;;;12.41;100.00;100498.81;5061952;28;20025;-31
2023/05/04 06:09:02;;;;;;;15.55;9.02;;;;;;;12.46;100.00;100500.81;5047328;28;20424;-31
2023/05/04 06:11:28;;;;;;;14.80;8.77;;;;;;;12.54;100.00;100502.41;5047380;28;20110;-31
2023/05/04 06:13:53;;;;;;;12.20;7.68;;;;;;;12.61;100.00;100497.81;5046438;28;20029;-32
2023/05/04 06:16:19;;;;;;;13.23;7.65;;;;;;;12.70;100.00;100506.38;5047109;28;20095;-32
2023/05/04 06:18:44;;;;;;;13.20;8.50;;;;;;;12.66;100.00;100505.97;5047292;28;20029;-32
2023/05/04 06:21:10;;;;;;;12.65;7.50;;;;;;;12.85;100.00;100499.59;5047132;28;20032;-31
2023/05/04 06:23:36;;;;;;;12.35;7.80;;;;;;;13.31;100.00;100501.97;5047044;28;20032;-31
2023/05/04 06:26:04;;;;;;;12.82;7.88;;;;;;;13.16;100.00;100505.84;5046790;28;20071;-32
2023/05/04 06:28:30;;;;;;;16.23;8.30;;;;;;;13.22;100.00;100499.59;5047322;28;20032;-30
2023/05/04 06:30:56;;;;;;;13.68;7.13;;;;;;;12.84;100.00;100508.66;5047049;28;20032;-32
2023/05/04 06:33:21;;;;;;;14.57;7.85;;;;;;;12.98;100.00;100519.25;5046873;28;20032;-31
2023/05/04 06:35:47;;;;;;;15.02;8.63;;;;;;;12.92;100.00;100514.78;5047075;28;20065;-31
2023/05/04 06:38:12;;;;;;;15.18;8.48;;;;;;;12.82;100.00;100513.44;5046805;28;20029;-32
2023/05/04 06:40:38;;;;;;;15.43;9.32;;;;;;;12.84;100.00;100503.31;5046562;28;20071;-32
2023/05/04 06:43:03;;;;;;;15.15;7.90;;;;;;;12.57;100.00;100494.75;5046713;28;20024;-31
2023/05/04 06:45:28;;;;;;;14.80;8.35;;;;;;;12.39;100.00;100495.53;5047105;28;20060;-31
2023/05/04 06:47:54;;;;;;;17.50;9.77;;;;;;;12.40;100.00;100497.19;5046620;28;20028;-31
2023/05/04 06:50:22;;;;;;;17.95;9.90;;;;;;;12.63;100.00;100495.72;5046577;28;20036;-31
2023/05/04 06:52:47;;;;;;;;;;;;;;;12.72;100.00;100494.38;5047341;28;20036;-33
2023/05/04 06:55:13;;;;;;;17.65;10.43;;;;;;;12.87;100.00;100496.69;5046587;28;19912;-31
2023/05/04 06:57:38;;;;;;;15.75;10.23;;;;;;;12.66;100.00;100490.72;5046425;28;20024;-31
2023/05/04 07:00:05;;;;;;;18.77;9.85;;;;;;;12.96;100.00;100499.91;5046431;28;20037;-31
2023/05/04 07:02:30;;;;;;;18.73;11.60;;;;;;;13.23;100.00;100500.38;5046592;28;20017;-31
2023/05/04 07:04:56;;;;;;;18.52;10.98;;;;;;;12.93;100.00;100501.16;5046274;28;20091;-32
2023/05/04 07:07:22;;;;;;;16.27;10.60;;;;;;;12.94;100.00;100499.31;5046502;28;20399;-32
2023/05/04 07:09:47;;;;;;;15.52;10.55;;;;;;;12.82;100.00;100500.03;5046309;28;20060;-31
2023/05/04 07:12:13;;;;;;;17.35;10.43;;;;;;;12.61;100.00;100492.47;5045564;28;20025;-31
2023/05/04 07:14:38;;;;;;;18.58;12.00;;;;;;;12.68;100.00;100495.88;5045783;28;20091;-31
2023/05/04 07:17:04;;;;;;;16.75;11.48;;;;;;;12.95;100.00;100490.22;5045075;28;20024;-30
2023/05/04 07:19:29;;;;;;;18.80;10.48;;;;;;;12.61;100.00;100493.28;5045624;28;20335;-30
2023/05/04 07:21:55;;;;;;;15.65;10.55;;;;;;;12.75;100.00;100485.94;5045373;28;20126;-30
2023/05/04 07:24:21;;;;;;;20.60;10.38;;;;;;;12.57;100.00;100491.28;5045563;28;20139;-32
2023/05/04 07:26:46;;;;;;;17.88;11.15;;;;;;;12.96;100.00;100494.56;5048547;28;20022;-30
2023/05/04 07:29:11;;;;;;;17.75;10.80;;;;;;;12.93;100.00;100500.34;5049337;28;20463;-33
2023/05/04 07:31:37;;;;;;;21.75;11.05;;;;;;;12.83;100.00;100506.19;5049401;28;20025;-31
2023/05/04 07:34:03;;;;;;;16.25;10.23;;;;;;;13.07;100.00;100499.13;5049382;28;20048;-33
2023/05/04 07:36:28;;;;;;;15.95;9.98;;;;;;;12.98;100.00;100511.22;5049114;28;20063;-32
2023/05/04 07:38:54;;;;;;;16.67;9.70;;;;;;;12.89;100.00;100510.66;5049105;28;20061;-31
2023/05/04 07:41:19;;;;;;;16.60;10.38;;;;;;;13.22;100.00;100499.59;5049293;28;20071;-31
2023/05/04 07:43:45;;;;;;;15.55;8.90;;;;;;;13.22;100.00;100496.91;5048979;28;20033;-32
2023/05/04 07:46:11;;;;;;;15.60;10.13;;;;;;;13.34;100.00;100497.00;5049284;28;20040;-32
2023/05/04 07:48:37;;;;;;;18.13;11.32;;;;;;;12.91;100.00;100478.31;5048954;28;20024;-31
2023/05/04 07:51:02;;;;;;;19.42;11.65;;;;;;;13.18;100.00;100493.03;5051711;28;20071;-31
2023/05/04 07:53:28;;;;;;;17.52;11.80;;;;;;;13.22;100.00;100499.59;5058028;28;20032;-32
2023/05/04 07:55:56;;;;;;;20.75;13.00;;;;;;;13.46;100.00;100502.38;5058135;28;20507;-30
2023/05/04 07:58:21;;;;;;;21.02;12.95;;;;;;;13.21;100.00;100503.28;5056557;28;20049;-31
2023/05/04 08:00:46;;;;;;;19.95;12.18;;;;;;;13.11;100.00;100502.19;5058252;28;20090;-32
2023/05/04 08:03:12;;;;;;;21.45;12.60;;;;;;;13.31;100.00;100501.97;5058226;28;20108;-32
2023/05/04 08:05:37;;;;;;;18.25;11.75;;;;;;;13.51;100.00;100496.34;5056802;28;20712;-31
2023/05/04 08:08:03;;;;;;;17.42;12.32;;;;;;;13.78;100.00;100502.16;5038019;28;20029;-31
2023/05/04 08:10:28;;;;;;;16.85;10.85;;;;;;;13.73;100.00;100499.31;5054140;28;20523;-33
2023/05/04 08:12:54;;;;;;;19.02;12.13;;;;;;;13.94;100.00;100504.16;5056711;28;20397;-31
2023/05/04 08:15:20;;;;;;;20.48;12.35;;;;;;;13.99;100.00;100504.28;5058692;28;20033;-31
2023/05/04 08:17:45;;;;;;;16.52;10.77;;;;;;;14.41;100.00;100496.16;5065848;28;20033;-31
2023/05/04 08:20:11;;;;;;;17.83;11.02;;;;;;;14.65;100.00;100512.28;5059690;28;20415;-32
2023/05/04 08:22:37;;;;;;;15.82;11.60;;;;;;;14.84;100.00;100508.41;5068357;28;20473;-32
2023/05/04 08:25:03;;;;;;;15.18;10.93;;;;;;;15.12;100.00;100519.41;5068311;28;20039;-32
2023/05/04 08:27:29;;;;;;;16.25;11.05;;;;;;;14.78;100.00;100520.09;5068449;28;20039;-32
2023/05/04 08:29:56;;;;;;;16.02;11.20;;;;;;;14.37;100.00;100494.19;5068343;28;20024;-33
2023/05/04 08:32:22;;;;;;;17.92;11.27;;;;;;;14.38;100.00;100518.06;5068191;28;20026;-32
2023/05/04 08:34:47;;;;;;;17.85;11.25;;;;;;;14.41;100.00;100522.19;5067878;28;20834;-32
2023/05/04 08:37:13;;;;;;;17.60;11.70;;;;;;;14.10;100.00;100510.72;5066931;28;20024;-32
2023/05/04 08:39:38;;;;;;;16.67;11.18;;;;;;;14.06;100.00;100514.91;5067928;28;20039;-34
2023/05/04 08:42:03;;;;;;;16.92;12.02;;;;;;;13.92;100.00;100514.31;5067938;28;20130;-31
2023/05/04 08:44:30;;;;;;;17.25;12.65;;;;;;;13.75;100.00;100494.53;5067736;28;20016;-33
2023/05/04 08:46:55;;;;;;;20.42;12.50;;;;;;;14.05;100.00;100503.34;5067951;28;20524;-34
2023/05/04 08:49:23;;;;;;;21.45;12.75;;;;;;;14.09;100.00;100487.63;5067731;28;20039;-30
2023/05/04 08:51:51;;;;;;;23.02;13.68;;;;;;;14.59;100.00;100494.44;5067742;28;20033;-30
2023/05/04 08:54:17;;;;;;;18.40;12.05;;;;;;;14.72;100.00;100494.19;5067725;28;20500;-30
2023/05/04 08:56:44;;;;;;;16.35;11.70;;;;;;;14.33;100.00;100499.19;5067820;28;20506;-31
2023/05/04 08:59:18;;;;;;;18.92;12.27;;;;;;;14.32;100.00;100489.50;5067535;28;20024;-30
2023/05/04 09:01:46;;;;;;;17.75;11.85;;;;;;;14.52;100.00;100504.44;5067496;28;20119;-30
2023/05/04 09:04:12;;;;;;;18.98;12.93;;;;;;;14.58;100.00;100506.22;5067911;28;20064;-31
2023/05/04 09:06:38;;;;;;;16.52;11.13;;;;;;;14.32;100.00;100510.16;5067398;28;20029;-30
2023/05/04 09:09:03;;;;;;;16.58;11.43;;;;;;;14.45;100.00;100512.63;5067513;28;20059;-30
2023/05/04 09:11:29;;;;;;;18.70;13.27;;;;;;;14.41;100.00;100514.94;5067494;28;20494;-30
2023/05/04 09:13:54;;;;;;;19.33;12.32;;;;;;;14.32;100.00;100507.47;5067375;28;20039;-31
2023/05/04 09:16:21;;;;;;;20.75;12.73;;;;;;;14.45;100.00;100513.41;5067676;28;20044;-31
2023/05/04 09:18:46;;;;;;;18.40;12.57;;;;;;;14.69;100.00;100510.78;5032702;28;20031;-31
2023/05/04 09:21:12;;;;;;;20.85;13.35;;;;;;;14.62;100.00;100502.81;5067392;28;20024;-31
2023/05/04 09:23:47;;;;;;;17.10;12.68;;;;;;;14.68;100.00;100511.00;5067313;28;20027;-30
2023/05/04 09:26:13;;;;;;;17.70;12.98;;;;;;;14.66;100.00;100503.97;5067321;28;20087;-30
2023/05/04 09:28:40;;;;;;;18.33;12.30;;;;;;;14.62;100.00;100492.09;5067313;28;20814;-33
2023/05/04 09:31:06;;;;;;;20.15;14.73;;;;;;;14.82;100.00;100486.34;5067350;28;20032;-34
2023/05/04 09:33:32;;;;;;;19.80;13.93;;;;;;;14.85;100.00;100499.31;5067049;28;20024;-33
2023/05/04 09:36:13;;;;;;;18.25;11.93;;;;;;;14.54;100.00;100491.59;5067000;28;20031;-33
2023/05/04 09:38:39;;;;;;;20.10;13.18;;;;;;;14.63;100.00;100490.22;5066763;28;20021;-33
2023/05/04 09:41:04;;;;;;;19.50;13.77;;;;;;;14.66;100.00;100487.06;5066744;28;20040;-32
2023/05/04 09:43:37;;;;;;;22.73;14.60;;;;;;;14.67;100.00;100488.72;5066862;28;20115;-31
2023/05/04 09:46:02;;;;;;;24.85;16.38;;;;;;;14.63;100.00;100488.34;5067025;28;20479;-32
2023/05/04 09:48:28;;;;;;;20.70;13.68;;;;;;;14.43;100.00;100488.69;5047384;28;20037;-31
2023/05/04 09:50:55;;;;;;;19.35;14.15;;;;;;;14.58;100.00;100474.00;5046438;28;20032;-31
2023/05/04 09:53:23;;;;;;;23.15;14.73;;;;;;;14.56;100.00;100458.13;5046560;28;20032;-31
2023/05/04 09:56:15;;;;;;;18.55;13.75;;;;;;;14.71;100.00;100473.78;5046831;28;20039;-32
2023/05/04 09:58:42;;;;;;;23.60;15.98;;;;;;;15.16;100.00;100469.53;5007692;28;20071;-33
2023/05/04 10:01:08;;;;;;;21.95;14.48;;;;;;;14.99;100.00;100464.13;5028102;28;20083;-32
2023/05/04 10:03:34;;;;;;;20.73;14.93;;;;;;;14.85;100.00;100467.09;5046284;28;20489;-31
2023/05/04 10:06:03;;;;;;;26.70;18.20;;;;;;;14.75;100.00;100453.44;5046803;28;20104;-32
2023/05/04 10:08:28;;;;;;;22.80;15.65;;;;;;;14.59;100.00;100457.69;5046124;28;20041;-32
2023/05/04 10:10:55;;;;;;;25.50;16.23;;;;;;;14.45;100.00;100465.13;5046391;28;20036;-30
2023/05/04 10:13:21;;;;;;;20.40;14.55;;;;;;;14.62;100.00;100457.19;5046317;28;20550;-31
2023/05/04 10:16:01;;;;;;;23.40;15.60;;;;;;;15.05;100.00;100465.84;5046507;28;20021;-31
2023/05/04 10:18:44;;;;;;;22.27;15.00;;;;;;;15.12;100.00;100453.09;5046535;28;20119;-31
2023/05/04 10:21:24;;;;;;;22.88;17.70;;;;;;;15.43;100.00;100457.16;5046122;28;20062;-31
2023/05/04 10:24:27;;;;;;;27.05;15.98;;;;;;;15.53;100.00;100459.22;5046100;28;20032;-33
2023/05/04 10:27:34;;;;;;;22.40;15.68;;;;;;;15.37;100.00;100455.44;5046511;28;20039;-31
2023/05/04 10:30:00;;;;;;;25.75;17.38;;;;;;;15.77;99.75;100449.19;5011962;28;20036;-30
2023/05/04 10:32:26;;;;;;;26.25;16.52;;;;;;;15.58;98.87;100456.63;5045786;28;20043;-30
2023/05/04 10:35:04;;;;;;;24.30;17.27;;;;;;;15.67;99.24;100443.59;5045897;28;20020;-32
2023/05/04 10:37:30;;;;;;;23.98;15.98;;;;;;;15.71;98.02;100443.91;5045859;28;20039;-32
2023/05/04 10:39:57;;;;;;;24.50;16.35;;;;;;;16.03;98.01;100455.78;5045892;28;20120;-31
2023/05/04 10:42:23;;;;;;;21.20;14.73;;;;;;;15.44;99.02;100444.53;5045513;28;20025;-31
2023/05/04 10:44:56;;;;;;;20.77;15.07;;;;;;;16.01;98.42;100449.81;5045815;28;20043;-31
2023/05/04 10:47:32;;;;;;;26.30;15.63;;;;;;;16.36;94.06;100445.22;5045718;28;20025;-32
2023/05/04 10:50:02;;;;;;;20.77;14.55;;;;;;;16.35;96.92;100444.41;5045565;28;20433;-31
2023/05/04 10:52:27;;;;;;;18.77;13.68;;;;;;;15.77;98.08;100441.13;5045717;28;20021;-31
2023/05/04 10:55:00;;;;;;;22.08;14.93;;;;;;;16.06;97.05;100457.97;5045618;28;20028;-31
2023/05/04 10:57:27;;;;;;;22.15;15.70;;;;;;;15.82;97.43;100440.38;5045639;28;20104;-31
2023/05/04 10:59:55;;;;;;;22.50;14.90;;;;;;;16.15;96.54;100449.50;5045206;28;20053;-31
2023/05/04 11:02:22;;;;;;;;;;;;;;;15.96;96.49;100454.31;5045927;28;20086;-32
2023/05/04 11:04:59;;;;;;;24.10;15.68;;;;;;;15.96;98.93;100430.13;5045486;28;19917;-31